Wetterdaten: Woche 21.04.03 - 27.04.03 (KW17)
Datum Zeit Temperatur Luftfeuchte Luftdruck Regenmenge Wind Richtung Taupunkt Windchill
21.04.2003 00:00 7.4 C 66 % 1011.7 hPa 0.0 l/m 0.0 km/h (0 Bft) N 1.4 C 7.4 C
21.04.2003 01:00 7.4 C 66 % 1011.7 hPa 0.0 l/m 0.0 km/h (0 Bft) N 1.5 C 7.4 C
21.04.2003 02:00 7.3 C 71 % 1011.7 hPa 0.0 l/m 0.4 km/h (0 Bft) O 2.4 C 7.3 C
21.04.2003 03:00 7.2 C 75 % 1012.3 hPa 0.0 l/m 0.4 km/h (0 Bft) O-SO 3.0 C 7.1 C
21.04.2003 04:00 7.6 C 72 % 1012.8 hPa 0.0 l/m 0.5 km/h (0 Bft) O-SO 2.8 C 7.6 C
21.04.2003 05:00 8.7 C 68 % 1012.8 hPa 0.0 l/m 6.0 km/h (2 Bft) O-SO 3.1 C 7.8 C
21.04.2003 06:00 8.9 C 78 % 1013.4 hPa 1.5 l/m 5.1 km/h (1 Bft) SO 5.1 C 8.2 C
21.04.2003 07:00 8.5 C 96 % 1014.1 hPa 0.3 l/m 8.1 km/h (2 Bft) SO 7.9 C 7.3 C
21.04.2003 08:00 9.0 C 96 % 1014.8 hPa 0.0 l/m 7.0 km/h (2 Bft) S-SO 8.4 C 8.0 C
21.04.2003 09:00 9.9 C 96 % 1015.3 hPa 0.0 l/m 5.3 km/h (1 Bft) SO 9.2 C 9.2 C
21.04.2003 10:00 11.2 C 88 % 1015.9 hPa 0.0 l/m 9.5 km/h (2 Bft) S-SO 9.2 C 11.2 C
21.04.2003 11:00 12.5 C 80 % 1015.9 hPa 0.0 l/m 11.6 km/h (2 Bft) SO 9.0 C 12.5 C
21.04.2003 12:00 13.4 C 74 % 1015.6 hPa 0.0 l/m 13.5 km/h (3 Bft) SO 8.8 C 13.4 C
21.04.2003 13:00 15.0 C 67 % 1014.8 hPa 0.0 l/m 18.1 km/h (3 Bft) SO 8.9 C 15.0 C
21.04.2003 14:00 16.6 C 60 % 1014.8 hPa 0.0 l/m 17.7 km/h (3 Bft) SO 8.7 C 16.6 C
21.04.2003 15:00 16.8 C 58 % 1014.8 hPa 0.3 l/m 13.8 km/h (3 Bft) SO 8.3 C 16.8 C
21.04.2003 16:00 13.1 C 82 % 1014.6 hPa 1.2 l/m 14.6 km/h (3 Bft) SO 10.2 C 13.1 C
21.04.2003 17:00 13.4 C 75 % 1015.0 hPa 0.0 l/m 10.6 km/h (2 Bft) O 9.1 C 13.4 C
21.04.2003 18:00 10.9 C 85 % 1015.8 hPa 0.9 l/m 7.0 km/h (2 Bft) O-SO 8.5 C 10.9 C
21.04.2003 19:00 10.3 C 94 % 1015.9 hPa 0.0 l/m 2.7 km/h (1 Bft) W-NW 9.4 C 10.3 C
21.04.2003 20:00 10.0 C 94 % 1015.9 hPa 0.0 l/m 0.2 km/h (0 Bft) O-NO 9.1 C 10.0 C
21.04.2003 21:00 9.7 C 96 % 1016.9 hPa 0.0 l/m 5.1 km/h (1 Bft) O-SO 9.1 C 9.0 C
21.04.2003 22:00 9.6 C 100 % 1016.9 hPa 0.0 l/m 2.6 km/h (1 Bft) SO 9.6 C 9.4 C
21.04.2003 23:00 9.5 C 100 % 1016.9 hPa 0.0 l/m 1.8 km/h (1 Bft) SO 9.5 C 9.4 C
22.04.2003 00:00 9.2 C 100 % 1016.9 hPa 0.3 l/m 0.2 km/h (0 Bft) SO 9.2 C 9.2 C
22.04.2003 01:00 8.9 C 100 % 1016.9 hPa 0.0 l/m 0.0 km/h (0 Bft) N 8.9 C 8.9 C
22.04.2003 02:00 8.1 C 100 % 1016.9 hPa 0.0 l/m 0.3 km/h (0 Bft) SO 8.1 C 8.0 C
22.04.2003 03:00 7.4 C 100 % 1016.7 hPa 0.0 l/m 1.7 km/h (1 Bft) O-SO 7.4 C 7.2 C
22.04.2003 04:00 7.8 C 100 % 1016.6 hPa 0.0 l/m 0.0 km/h (0 Bft) N 7.8 C 7.8 C
22.04.2003 05:00 8.3 C 100 % 1016.9 hPa 0.0 l/m 0.0 km/h (0 Bft) N 8.3 C 8.3 C
22.04.2003 06:00 8.4 C 100 % 1016.9 hPa 0.0 l/m 0.0 km/h (0 Bft) N 8.4 C 8.4 C
22.04.2003 07:00 8.4 C 100 % 1016.9 hPa 0.0 l/m 0.0 km/h (0 Bft) N 8.4 C 8.4 C
22.04.2003 08:00 8.6 C 100 % 1016.9 hPa 0.0 l/m 2.1 km/h (1 Bft) W-NW 8.6 C 8.3 C
22.04.2003 09:00 9.8 C 97 % 1016.9 hPa 0.0 l/m 0.0 km/h (0 Bft) N 9.3 C 9.8 C
22.04.2003 10:00 12.0 C 82 % 1016.9 hPa 0.0 l/m 0.5 km/h (0 Bft) NO 8.9 C 12.0 C
22.04.2003 11:00 13.9 C 74 % 1016.9 hPa 0.0 l/m 1.1 km/h (0 Bft) NW 9.2 C 13.9 C
22.04.2003 12:00 16.2 C 53 % 1016.3 hPa 0.0 l/m 2.0 km/h (1 Bft) NW 6.7 C 16.2 C
22.04.2003 13:00 16.9 C 51 % 1015.7 hPa 0.0 l/m 3.4 km/h (1 Bft) N-NO 6.6 C 16.9 C
22.04.2003 14:00 16.6 C 49 % 1014.8 hPa 0.0 l/m 19.4 km/h (3 Bft) NW 5.8 C 16.6 C
22.04.2003 15:00 19.1 C 41 % 1014.4 hPa 0.0 l/m 7.5 km/h (2 Bft) NW 5.4 C 19.1 C
22.04.2003 16:00 19.6 C 36 % 1013.8 hPa 0.0 l/m 8.0 km/h (2 Bft) NW 4.3 C 19.6 C
22.04.2003 17:00 20.7 C 38 % 1013.8 hPa 0.0 l/m 6.0 km/h (2 Bft) NW 5.8 C 20.7 C
22.04.2003 18:00 18.4 C 46 % 1013.8 hPa 0.0 l/m 6.2 km/h (2 Bft) NO 6.6 C 18.4 C
22.04.2003 19:00 15.7 C 51 % 1013.9 hPa 0.0 l/m 4.5 km/h (1 Bft) N-NO 5.4 C 15.7 C
22.04.2003 20:00 12.2 C 82 % 1014.8 hPa 0.3 l/m 2.8 km/h (1 Bft) SO 9.0 C 12.2 C
22.04.2003 21:00 11.3 C 89 % 1014.8 hPa 0.0 l/m 0.8 km/h (0 Bft) O 9.6 C 11.3 C
22.04.2003 22:00 10.7 C 90 % 1014.8 hPa 0.0 l/m 0.4 km/h (0 Bft) O-SO 9.1 C 10.7 C
22.04.2003 23:00 9.6 C 91 % 1014.8 hPa 0.0 l/m 0.4 km/h (0 Bft) O-SO 8.3 C 9.6 C
23.04.2003 00:00 8.2 C 97 % 1014.8 hPa 0.0 l/m 0.0 km/h (0 Bft) N 7.8 C 8.2 C
23.04.2003 01:00 7.3 C 99 % 1014.8 hPa 0.0 l/m 0.4 km/h (0 Bft) SO 7.2 C 7.3 C
23.04.2003 02:00 6.7 C 99 % 1014.8 hPa 0.0 l/m 1.0 km/h (0 Bft) O-SO 6.5 C 6.6 C
23.04.2003 03:00 6.0 C 100 % 1014.6 hPa 0.0 l/m 1.2 km/h (1 Bft) SO 6.0 C 5.9 C
23.04.2003 04:00 5.4 C 100 % 1014.8 hPa 0.0 l/m 2.1 km/h (1 Bft) O-SO 5.4 C 5.2 C
23.04.2003 05:00 5.2 C 100 % 1014.8 hPa 0.0 l/m 0.0 km/h (0 Bft) N 5.2 C 5.2 C
23.04.2003 06:00 4.6 C 100 % 1014.8 hPa 0.0 l/m 2.7 km/h (1 Bft) O-SO 4.6 C 4.1 C
23.04.2003 07:00 5.1 C 100 % 1015.0 hPa 0.0 l/m 0.3 km/h (0 Bft) O-SO 5.1 C 5.1 C
23.04.2003 08:00 7.5 C 96 % 1015.7 hPa 0.0 l/m 0.0 km/h (0 Bft) N 6.9 C 7.5 C
23.04.2003 09:00 9.5 C 84 % 1015.4 hPa 0.0 l/m 2.8 km/h (1 Bft) NW 6.9 C 9.3 C
23.04.2003 10:00 12.0 C 72 % 1015.2 hPa 0.0 l/m 1.0 km/h (0 Bft) W 7.1 C 12.0 C
23.04.2003 11:00 15.7 C 58 % 1014.8 hPa 0.0 l/m 6.4 km/h (2 Bft) O-SO 7.3 C 15.7 C
23.04.2003 12:00 18.1 C 49 % 1014.8 hPa 0.0 l/m 7.0 km/h (2 Bft) O-SO 7.1 C 18.1 C
23.04.2003 13:00 19.6 C 43 % 1013.9 hPa 0.0 l/m 6.7 km/h (2 Bft) SO 6.6 C 19.6 C
23.04.2003 14:00 18.9 C 40 % 1013.8 hPa 0.0 l/m 2.6 km/h (1 Bft) W 5.1 C 18.9 C
23.04.2003 15:00 19.0 C 43 % 1013.7 hPa 0.0 l/m 18.4 km/h (3 Bft) NW 6.1 C 19.0 C
23.04.2003 16:00 19.8 C 40 % 1013.3 hPa 0.0 l/m 18.2 km/h (3 Bft) W-NW 5.7 C 19.8 C
23.04.2003 17:00 18.6 C 42 % 1013.7 hPa 0.0 l/m 8.3 km/h (2 Bft) O 5.4 C 18.6 C
23.04.2003 18:00 15.9 C 58 % 1013.8 hPa 0.0 l/m 3.5 km/h (1 Bft) W-NW 7.5 C 15.9 C
23.04.2003 19:00 15.6 C 59 % 1014.5 hPa 0.0 l/m 1.5 km/h (1 Bft) NO 7.6 C 15.6 C
23.04.2003 20:00 14.9 C 60 % 1014.8 hPa 0.0 l/m 0.6 km/h (0 Bft) O-SO 7.0 C 14.9 C
23.04.2003 21:00 11.3 C 76 % 1015.2 hPa 0.0 l/m 4.1 km/h (1 Bft) O-SO 7.2 C 11.3 C
23.04.2003 22:00 9.8 C 83 % 1015.9 hPa 0.0 l/m 2.3 km/h (1 Bft) O-SO 7.1 C 9.6 C
23.04.2003 23:00 8.3 C 89 % 1015.9 hPa 0.0 l/m 0.2 km/h (0 Bft) N 6.5 C 8.3 C
24.04.2003 00:00 7.3 C 93 % 1016.5 hPa 0.0 l/m 0.9 km/h (0 Bft) O-SO 6.2 C 7.3 C
24.04.2003 01:00 6.6 C 95 % 1016.9 hPa 0.0 l/m 0.0 km/h (0 Bft) N 5.8 C 6.6 C
24.04.2003 02:00 5.7 C 98 % 1016.9 hPa 0.0 l/m 0.0 km/h (0 Bft) N 5.4 C 5.7 C
24.04.2003 03:00 5.3 C 99 % 1016.9 hPa 0.0 l/m 0.0 km/h (0 Bft) N 5.2 C 5.3 C
24.04.2003 04:00 4.5 C 100 % 1016.9 hPa 0.0 l/m 0.0 km/h (0 Bft) N 4.5 C 4.5 C
24.04.2003 05:00 4.1 C 100 % 1016.9 hPa 0.0 l/m 0.0 km/h (0 Bft) N 4.1 C 4.1 C
24.04.2003 06:00 3.6 C 100 % 1017.8 hPa 0.0 l/m 0.0 km/h (0 Bft) N 3.6 C 3.6 C
24.04.2003 07:00 4.7 C 100 % 1018.0 hPa 0.0 l/m 0.0 km/h (0 Bft) N 4.7 C 4.7 C
24.04.2003 08:00 6.5 C 96 % 1018.9 hPa 0.0 l/m 0.0 km/h (0 Bft) N 6.0 C 6.5 C
24.04.2003 09:00 9.0 C 85 % 1019.0 hPa 0.0 l/m 0.0 km/h (0 Bft) N 6.5 C 9.0 C
24.04.2003 10:00 12.4 C 67 % 1019.0 hPa 0.0 l/m 2.4 km/h (1 Bft) W-NW 6.3 C 12.4 C
24.04.2003 11:00 15.3 C 53 % 1019.0 hPa 0.0 l/m 1.7 km/h (1 Bft) W-NW 5.8 C 15.3 C
24.04.2003 12:00 18.0 C 46 % 1018.2 hPa 0.0 l/m 3.7 km/h (1 Bft) W-NW 6.3 C 18.0 C
24.04.2003 13:00 20.6 C 39 % 1018.0 hPa 0.0 l/m 4.5 km/h (1 Bft) SO 5.9 C 20.6 C
24.04.2003 14:00 21.6 C 33 % 1018.0 hPa 0.0 l/m 4.7 km/h (1 Bft) NO 4.7 C 21.6 C
24.04.2003 15:00 22.6 C 27 % 1017.1 hPa 0.0 l/m 4.0 km/h (1 Bft) SO 2.6 C 22.6 C
24.04.2003 16:00 22.6 C 27 % 1016.9 hPa 0.0 l/m 3.8 km/h (1 Bft) W-NW 2.6 C 22.6 C
24.04.2003 17:00 22.2 C 28 % 1016.9 hPa 0.0 l/m 0.1 km/h (0 Bft) W-NW 2.6 C 22.2 C
24.04.2003 18:00 21.7 C 29 % 1016.9 hPa 0.0 l/m 1.9 km/h (1 Bft) SO 3.0 C 21.7 C
24.04.2003 19:00 20.3 C 33 % 1016.9 hPa 0.0 l/m 1.5 km/h (1 Bft) SO 3.3 C 20.3 C
24.04.2003 20:00 16.6 C 44 % 1016.9 hPa 0.0 l/m 4.5 km/h (1 Bft) O-SO 4.1 C 16.6 C
24.04.2003 21:00 13.0 C 57 % 1017.7 hPa 0.0 l/m 2.5 km/h (1 Bft) O-SO 4.7 C 13.0 C
24.04.2003 22:00 10.9 C 68 % 1018.0 hPa 0.0 l/m 0.9 km/h (0 Bft) O-SO 5.3 C 10.9 C
24.04.2003 23:00 9.6 C 73 % 1019.0 hPa 0.0 l/m 1.7 km/h (1 Bft) SO 5.1 C 9.5 C
25.04.2003 00:00 8.9 C 77 % 1019.0 hPa 0.0 l/m 1.4 km/h (1 Bft) SO 5.1 C 8.9 C
25.04.2003 01:00 8.0 C 81 % 1019.0 hPa 0.0 l/m 1.4 km/h (1 Bft) SO 5.0 C 7.9 C
25.04.2003 02:00 7.2 C 88 % 1019.0 hPa 0.0 l/m 1.5 km/h (1 Bft) SO 5.3 C 7.0 C
25.04.2003 03:00 6.8 C 91 % 1019.0 hPa 0.0 l/m 0.0 km/h (0 Bft) N 5.4 C 6.8 C
25.04.2003 04:00 6.1 C 92 % 1019.0 hPa 0.0 l/m 0.0 km/h (0 Bft) SO 4.8 C 6.1 C
25.04.2003 05:00 5.2 C 95 % 1018.9 hPa 0.0 l/m 0.7 km/h (0 Bft) N 4.5 C 5.1 C
25.04.2003 06:00 5.1 C 98 % 1018.6 hPa 0.0 l/m 1.8 km/h (1 Bft) SO 4.8 C 4.7 C
25.04.2003 07:00 6.2 C 94 % 1019.0 hPa 0.0 l/m 0.0 km/h (0 Bft) N 5.3 C 6.2 C
25.04.2003 08:00 8.4 C 82 % 1019.0 hPa 0.0 l/m 0.0 km/h (0 Bft) N 5.6 C 8.4 C
25.04.2003 09:00 11.4 C 68 % 1018.7 hPa 0.0 l/m 0.1 km/h (0 Bft) N 5.7 C 11.4 C
25.04.2003 10:00 14.9 C 53 % 1018.0 hPa 0.0 l/m 1.8 km/h (1 Bft) W-NW 5.4 C 14.9 C
25.04.2003 11:00 17.4 C 45 % 1018.0 hPa 0.0 l/m 2.2 km/h (1 Bft) W-NW 5.5 C 17.4 C
25.04.2003 12:00 20.0 C 41 % 1017.3 hPa 0.0 l/m 6.0 km/h (2 Bft) W-NW 6.5 C 20.0 C
25.04.2003 13:00 22.8 C 36 % 1016.6 hPa 0.0 l/m 0.7 km/h (0 Bft) W-NW 6.8 C 22.8 C
25.04.2003 14:00 23.9 C 31 % 1015.9 hPa 0.0 l/m 2.9 km/h (1 Bft) SO 5.8 C 23.9 C
25.04.2003 15:00 24.7 C 29 % 1015.6 hPa 0.0 l/m 5.3 km/h (1 Bft) SO 5.4 C 24.7 C
25.04.2003 16:00 25.9 C 27 % 1014.8 hPa 0.0 l/m 5.8 km/h (2 Bft) SO 5.4 C 25.9 C
25.04.2003 17:00 24.8 C 26 % 1014.8 hPa 0.0 l/m 1.5 km/h (1 Bft) O-SO 3.9 C 24.8 C
25.04.2003 18:00 24.6 C 28 % 1014.8 hPa 0.0 l/m 3.8 km/h (1 Bft) O-SO 4.9 C 24.6 C
25.04.2003 19:00 21.8 C 39 % 1014.4 hPa 0.0 l/m 3.6 km/h (1 Bft) O-SO 7.2 C 21.8 C
25.04.2003 20:00 19.4 C 45 % 1014.7 hPa 0.0 l/m 1.7 km/h (1 Bft) S 7.1 C 19.4 C
25.04.2003 21:00 19.0 C 50 % 1014.8 hPa 0.0 l/m 9.8 km/h (2 Bft) W-NW 8.5 C 19.0 C
25.04.2003 22:00 17.0 C 56 % 1014.8 hPa 0.0 l/m 1.9 km/h (1 Bft) O-SO 8.1 C 17.0 C
25.04.2003 23:00 15.3 C 64 % 1014.8 hPa 0.0 l/m 3.2 km/h (1 Bft) O-SO 8.4 C 15.3 C
26.04.2003 00:00 13.3 C 73 % 1014.8 hPa 0.0 l/m 2.4 km/h (1 Bft) O-SO 8.5 C 13.3 C
26.04.2003 01:00 12.1 C 78 % 1015.0 hPa 0.0 l/m 2.6 km/h (1 Bft) O-SO 8.4 C 12.1 C
26.04.2003 02:00 10.8 C 82 % 1014.8 hPa 0.0 l/m 4.1 km/h (1 Bft) O-SO 7.9 C 10.8 C
26.04.2003 03:00 10.3 C 86 % 1014.8 hPa 0.0 l/m 2.3 km/h (1 Bft) O-SO 8.0 C 10.2 C
26.04.2003 04:00 9.4 C 93 % 1014.6 hPa 0.0 l/m 0.0 km/h (0 Bft) N 8.2 C 9.4 C
26.04.2003 05:00 8.9 C 97 % 1013.8 hPa 0.0 l/m 0.4 km/h (0 Bft) O-SO 8.5 C 8.9 C
26.04.2003 06:00 8.5 C 98 % 1013.8 hPa 0.0 l/m 0.0 km/h (0 Bft) N 8.1 C 8.5 C
26.04.2003 07:00 9.6 C 94 % 1013.8 hPa 0.0 l/m 1.3 km/h (1 Bft) O-SO 8.7 C 9.4 C
26.04.2003 08:00 11.6 C 82 % 1013.5 hPa 0.0 l/m 0.7 km/h (0 Bft) W-NW 8.5 C 11.6 C
26.04.2003 09:00 12.7 C 78 % 1013.4 hPa 0.0 l/m 0.7 km/h (0 Bft) W-NW 8.9 C 12.7 C
26.04.2003 10:00 15.4 C 71 % 1012.8 hPa 0.0 l/m 0.3 km/h (0 Bft) W 10.1 C 15.4 C
26.04.2003 11:00 16.8 C 64 % 1012.8 hPa 0.0 l/m 1.2 km/h (1 Bft) W-NW 9.9 C 16.8 C
26.04.2003 12:00 17.0 C 59 % 1012.8 hPa 0.0 l/m 3.5 km/h (1 Bft) W-NW 9.0 C 17.0 C
26.04.2003 13:00 17.3 C 58 % 1012.8 hPa 0.0 l/m 1.7 km/h (1 Bft) SW 8.9 C 17.3 C
26.04.2003 14:00 16.3 C 66 % 1012.8 hPa 0.0 l/m 0.4 km/h (0 Bft) SO 9.8 C 16.3 C
26.04.2003 15:00 13.8 C 86 % 1012.0 hPa 1.2 l/m 5.4 km/h (1 Bft) O-SO 11.5 C 13.8 C
26.04.2003 16:00 13.4 C 97 % 1012.5 hPa 2.1 l/m 1.1 km/h (0 Bft) SO 12.9 C 13.4 C
26.04.2003 17:00 13.1 C 97 % 1013.8 hPa 0.6 l/m 1.0 km/h (0 Bft) SO 12.7 C 13.1 C
26.04.2003 18:00 12.9 C 98 % 1014.1 hPa 0.9 l/m 2.7 km/h (1 Bft) W-NW 12.7 C 12.9 C
26.04.2003 19:00 11.7 C 95 % 1015.0 hPa 0.6 l/m 25.1 km/h (4 Bft) W-NW 10.9 C 11.7 C
26.04.2003 20:00 10.9 C 97 % 1015.9 hPa 0.0 l/m 19.4 km/h (3 Bft) W-NW 10.4 C 10.9 C
26.04.2003 21:00 10.4 C 97 % 1016.6 hPa 0.0 l/m 0.7 km/h (0 Bft) W-NW 10.0 C 10.4 C
26.04.2003 22:00 10.4 C 99 % 1016.9 hPa 0.0 l/m 0.7 km/h (0 Bft) N-NW 10.2 C 10.4 C
26.04.2003 23:00 9.9 C 100 % 1016.9 hPa 0.0 l/m 0.0 km/h (0 Bft) N 9.8 C 9.9 C
27.04.2003 00:00 10.1 C 100 % 1016.9 hPa 0.0 l/m 0.0 km/h (0 Bft) N 10.1 C 10.1 C
27.04.2003 01:00 9.9 C 100 % 1016.9 hPa 0.0 l/m 0.0 km/h (0 Bft) N 9.9 C 9.9 C
27.04.2003 02:00 9.1 C 100 % 1016.9 hPa 0.0 l/m 0.3 km/h (0 Bft) W-SW 9.1 C 9.1 C
27.04.2003 03:00 9.2 C 100 % 1016.9 hPa 0.3 l/m 0.1 km/h (0 Bft) W-NW 9.2 C 9.2 C
27.04.2003 04:00 9.4 C 100 % 1016.9 hPa 0.6 l/m 11.0 km/h (2 Bft) NW 9.4 C 7.9 C
27.04.2003 05:00 8.9 C 100 % 1016.9 hPa 0.0 l/m 6.3 km/h (2 Bft) NW 8.9 C 8.1 C
27.04.2003 06:00 8.6 C 100 % 1017.3 hPa 0.0 l/m 11.7 km/h (2 Bft) W-NW 8.6 C 6.9 C
27.04.2003 07:00 9.0 C 95 % 1018.0 hPa 0.0 l/m 1.2 km/h (1 Bft) SO 8.2 C 8.9 C
27.04.2003 08:00 10.5 C 81 % 1018.0 hPa 0.0 l/m 10.5 km/h (2 Bft) NW 7.3 C 10.5 C
27.04.2003 09:00 11.3 C 73 % 1018.7 hPa 0.0 l/m 15.3 km/h (3 Bft) NW 6.6 C 11.3 C
27.04.2003 10:00 11.7 C 70 % 1018.6 hPa 0.0 l/m 11.0 km/h (2 Bft) W-NW 6.4 C 11.7 C
27.04.2003 11:00 13.1 C 57 % 1018.0 hPa 0.0 l/m 26.1 km/h (4 Bft) W-NW 4.8 C 13.1 C
27.04.2003 12:00 14.4 C 50 % 1018.0 hPa 0.0 l/m 25.8 km/h (4 Bft) NW 4.2 C 14.4 C
27.04.2003 13:00 14.8 C 50 % 1017.7 hPa 0.0 l/m 18.4 km/h (3 Bft) NW 4.4 C 14.8 C
27.04.2003 14:00 15.9 C 48 % 1016.9 hPa 0.0 l/m 18.0 km/h (3 Bft) W-NW 4.7 C 15.9 C
27.04.2003 15:00 15.8 C 47 % 1016.5 hPa 0.0 l/m 24.5 km/h (4 Bft) W-NW 4.4 C 15.8 C
27.04.2003 16:00 16.5 C 45 % 1015.9 hPa 0.0 l/m 16.3 km/h (3 Bft) NW 4.6 C 16.5 C
27.04.2003 17:00 18.0 C 38 % 1015.7 hPa 0.0 l/m 10.3 km/h (2 Bft) NW 3.3 C 18.0 C
27.04.2003 18:00 17.6 C 37 % 1015.9 hPa 0.0 l/m 20.4 km/h (4 Bft) NW 2.6 C 17.6 C
27.04.2003 19:00 15.6 C 45 % 1015.9 hPa 0.0 l/m 20.1 km/h (4 Bft) W-NW 3.7 C 15.6 C
27.04.2003 20:00 14.3 C 53 % 1015.9 hPa 0.0 l/m 9.0 km/h (2 Bft) W-NW 4.8 C 14.3 C
27.04.2003 21:00 13.6 C 57 % 1016.8 hPa 0.0 l/m 15.9 km/h (3 Bft) NW 5.4 C 13.6 C
27.04.2003 22:00 12.5 C 64 % 1016.9 hPa 0.0 l/m 4.6 km/h (1 Bft) O-SO 5.7 C 12.5 C
27.04.2003 23:00 10.8 C 70 % 1016.2 hPa 0.0 l/m 4.8 km/h (1 Bft) O-SO 5.5 C 10.8 C
Min-Datum _ 24.04.03 24.04.03 21.04.03 - 21.04.03 - 27.04.03 23.04.03
_ Min-Zeit 06:42 15:30 00:02 - 00:02 - 18:10 06:22
Minimum _ 3.2 C 25 % 1011.7 hPa - 0.0 km/h (0 Bft) - 0.1 C 2.9 C
Max-Datum _ 25.04.03 21.04.03 25.04.03 26.04.03 26.04.03 - 26.04.03 25.04.03
_ Max-Zeit 16:26 22:03 05:46 15:00 19:39 - 16:18 16:26
Maximum _ 26.2 C 100 % 1019.1 hPa 2.1 l/m 41.8 km/h
W-NW (6 Bft)
- 13.5 C 26.2 C
Durchschnitt _ 12.5 C 73 % 1015.8 hPa #11.1 l/m 4.6 km/h (1 Bft) SO 6.9 C 12.4 C

Durchschnitt Minimum Temp.11.6 C
Durchschnitt Maximum Temp.13.5 C
© Kaiko 2003